createdAt,value
2018-11-02T00:00:41.803Z,99.90
2018-11-02T00:03:11.452Z,99.90
2018-11-02T00:05:41.128Z,99.90
2018-11-02T00:08:11.316Z,99.90
2018-11-02T00:10:40.988Z,99.90
2018-11-02T00:13:10.456Z,99.90
2018-11-02T00:15:40.402Z,99.90
2018-11-02T00:18:10.030Z,99.90
2018-11-02T00:20:39.662Z,99.90
2018-11-02T00:23:09.362Z,99.90
2018-11-02T00:25:39.055Z,99.90
2018-11-02T00:28:08.774Z,99.90
2018-11-02T00:30:38.332Z,99.90
2018-11-02T00:33:08.008Z,99.90
2018-11-02T00:35:37.700Z,99.90
2018-11-02T00:38:07.544Z,99.90
2018-11-02T00:40:37.134Z,99.90
2018-11-02T00:43:07.037Z,99.90
2018-11-02T00:45:36.559Z,99.90
2018-11-02T00:48:06.445Z,99.90
2018-11-02T00:50:35.956Z,99.90
2018-11-02T00:53:06.021Z,99.90
2018-11-02T00:55:35.706Z,99.90
2018-11-02T00:58:05.936Z,99.90
2018-11-02T01:00:35.535Z,99.90
2018-11-02T01:03:05.037Z,99.90
2018-11-02T01:05:34.594Z,99.90
2018-11-02T01:08:04.289Z,99.90
2018-11-02T01:10:33.948Z,99.90
2018-11-02T01:13:03.556Z,99.90
2018-11-02T01:15:33.084Z,99.90
2018-11-02T01:18:02.672Z,99.90
2018-11-02T01:20:32.372Z,99.90
2018-11-02T01:23:01.988Z,99.90
2018-11-02T01:25:31.541Z,99.90
2018-11-02T01:28:01.509Z,99.90
2018-11-02T01:30:31.221Z,99.90
2018-11-02T01:33:00.830Z,99.90
2018-11-02T01:35:30.539Z,99.90
2018-11-02T01:38:00.249Z,99.90
2018-11-02T01:40:29.758Z,99.90
2018-11-02T01:42:59.361Z,99.90
2018-11-02T01:45:28.927Z,99.90
2018-11-02T01:47:58.591Z,99.90
2018-11-02T01:50:28.341Z,99.90
2018-11-02T01:52:57.884Z,99.90
2018-11-02T01:55:34.542Z,99.90
2018-11-02T01:58:04.170Z,99.90
2018-11-02T02:00:33.696Z,99.90
2018-11-02T02:03:03.273Z,99.90
2018-11-02T02:05:32.989Z,99.90
2018-11-02T02:08:02.624Z,99.90
2018-11-02T02:10:32.745Z,99.90
2018-11-02T02:13:02.356Z,99.90
2018-11-02T02:15:31.946Z,99.90
2018-11-02T02:18:01.773Z,99.90
2018-11-02T02:20:31.590Z,99.90
2018-11-02T02:23:01.282Z,99.90
2018-11-02T02:25:31.187Z,99.90
2018-11-02T02:28:00.958Z,99.90
2018-11-02T02:30:30.672Z,99.90
2018-11-02T02:33:00.305Z,99.90
2018-11-02T02:35:30.258Z,99.90
2018-11-02T02:38:00.043Z,99.90
2018-11-02T02:40:29.698Z,99.90
2018-11-02T02:42:59.389Z,99.90
2018-11-02T02:45:28.974Z,99.90
2018-11-02T02:47:58.582Z,99.90
2018-11-02T02:50:28.196Z,99.90
2018-11-02T02:52:57.894Z,99.90
2018-11-02T02:55:27.368Z,99.90
2018-11-02T02:57:56.967Z,99.90
2018-11-02T03:00:26.405Z,99.90
2018-11-02T03:02:56.112Z,99.90
2018-11-02T03:05:25.743Z,99.90
2018-11-02T03:07:55.356Z,99.90
2018-11-02T03:10:24.920Z,99.90
2018-11-02T03:12:54.438Z,99.90
2018-11-02T03:15:24.012Z,99.90
2018-11-02T03:17:53.560Z,99.90
2018-11-02T03:20:23.162Z,99.90
2018-11-02T03:22:52.851Z,99.90
2018-11-02T03:25:22.409Z,99.90
2018-11-02T03:27:51.999Z,99.90
2018-11-02T03:30:22.110Z,99.90
2018-11-02T03:32:52.124Z,99.90
2018-11-02T03:35:21.912Z,99.90
2018-11-02T03:37:51.549Z,99.90
2018-11-02T03:40:21.217Z,99.90
2018-11-02T03:42:50.856Z,99.90
2018-11-02T03:45:20.439Z,99.90
2018-11-02T03:47:50.711Z,99.90
2018-11-02T03:50:20.365Z,99.90
2018-11-02T03:52:50.005Z,99.90
2018-11-02T03:55:19.548Z,99.90
2018-11-02T03:57:49.140Z,99.90
2018-11-02T04:00:18.733Z,99.90
2018-11-02T04:02:48.164Z,99.90
2018-11-02T04:05:18.405Z,99.90
2018-11-02T04:07:47.979Z,99.90
2018-11-02T04:10:17.765Z,99.90
2018-11-02T04:12:47.430Z,99.90
2018-11-02T04:15:17.255Z,99.90
2018-11-02T04:17:47.096Z,99.90
2018-11-02T04:20:24.373Z,99.90
2018-11-02T04:22:54.022Z,99.90
2018-11-02T04:25:23.661Z,99.90
2018-11-02T04:27:53.234Z,99.90
2018-11-02T04:30:22.864Z,99.90
2018-11-02T04:32:52.465Z,99.90
2018-11-02T04:35:22.149Z,99.90
2018-11-02T04:37:52.185Z,99.90
2018-11-02T04:40:21.712Z,99.90
2018-11-02T04:42:57.959Z,99.90
2018-11-02T04:45:32.659Z,99.90
2018-11-02T04:48:02.601Z,99.90
2018-11-02T04:50:32.098Z,99.90
2018-11-02T04:53:02.229Z,99.90
2018-11-02T04:55:32.730Z,99.90
2018-11-02T04:58:02.254Z,99.90
2018-11-02T05:00:32.593Z,99.90
2018-11-02T05:03:03.638Z,99.90
2018-11-02T05:05:33.371Z,99.90
2018-11-02T05:08:03.640Z,99.90
2018-11-02T05:10:33.224Z,99.90
2018-11-02T05:13:02.815Z,99.90
2018-11-02T05:15:32.452Z,99.90
2018-11-02T05:18:02.073Z,99.90
2018-11-02T05:20:31.610Z,99.90
2018-11-02T05:23:01.283Z,99.90
2018-11-02T05:25:30.901Z,99.90
2018-11-02T05:28:00.520Z,99.90
2018-11-02T05:30:31.289Z,99.90
2018-11-02T05:33:00.849Z,99.90
2018-11-02T05:35:30.496Z,99.90
2018-11-02T05:38:00.066Z,99.90
2018-11-02T05:40:29.684Z,99.90
2018-11-02T05:42:59.278Z,99.90
2018-11-02T05:45:28.914Z,99.90
2018-11-02T05:47:58.596Z,99.90
2018-11-02T05:50:28.207Z,99.90
2018-11-02T05:52:58.044Z,99.90
2018-11-02T05:55:27.753Z,99.90
2018-11-02T05:57:57.312Z,99.90
2018-11-02T06:00:26.961Z,99.90
2018-11-02T06:02:56.836Z,99.90
2018-11-02T06:05:26.465Z,99.90
2018-11-02T06:07:56.144Z,99.90
2018-11-02T06:10:25.610Z,99.90
2018-11-02T06:12:55.159Z,99.90
2018-11-02T06:15:24.800Z,99.90
2018-11-02T06:17:54.432Z,99.90
2018-11-02T06:20:24.010Z,99.90
2018-11-02T06:22:54.138Z,99.90
2018-11-02T06:25:23.750Z,99.90
2018-11-02T06:27:53.498Z,99.90
2018-11-02T06:30:23.171Z,99.90
2018-11-02T06:32:53.009Z,99.90
2018-11-02T06:35:22.412Z,99.90
2018-11-02T06:37:52.047Z,99.90
2018-11-02T06:40:21.593Z,99.90
2018-11-02T06:42:52.007Z,99.90
2018-11-02T06:45:21.628Z,99.90
2018-11-02T06:47:51.393Z,99.90
2018-11-02T06:50:21.075Z,99.90
2018-11-02T06:52:50.754Z,99.90
2018-11-02T06:55:20.373Z,99.90
2018-11-02T06:57:50.065Z,99.90
2018-11-02T07:00:19.950Z,99.90
2018-11-02T07:02:49.415Z,99.90
2018-11-02T07:05:21.844Z,99.90
2018-11-02T07:07:51.333Z,99.90
2018-11-02T07:10:20.713Z,99.90
2018-11-02T07:12:50.266Z,99.90
2018-11-02T07:15:19.756Z,99.90
2018-11-02T07:17:49.548Z,99.90
2018-11-02T07:20:18.932Z,99.90
2018-11-02T07:22:48.544Z,99.90
2018-11-02T07:25:18.456Z,99.90
2018-11-02T07:27:47.934Z,99.90
2018-11-02T07:30:17.460Z,99.90
2018-11-02T07:32:46.979Z,99.90
2018-11-02T07:35:16.426Z,97.10
2018-11-02T07:37:46.049Z,91.10
2018-11-02T07:41:31.328Z,83.40
2018-11-02T07:44:01.129Z,77.60
2018-11-02T07:46:30.581Z,73.40
2018-11-02T07:49:00.164Z,69.30
2018-11-02T07:51:30.235Z,64.50
2018-11-02T07:53:59.786Z,59.40
2018-11-02T07:56:29.162Z,59.80
2018-11-02T07:58:59.333Z,58.60
2018-11-02T08:01:28.875Z,55.90
2018-11-02T08:03:58.365Z,53.60
2018-11-02T08:06:27.800Z,52.80
2018-11-02T08:08:58.351Z,54.00
2018-11-02T08:11:28.103Z,51.80
2018-11-02T08:13:57.503Z,53.40
2018-11-02T08:16:27.347Z,51.70
2018-11-02T08:18:56.972Z,50.10
2018-11-02T08:21:26.745Z,48.90
2018-11-02T08:23:56.383Z,48.30
2018-11-02T08:26:26.571Z,47.30
2018-11-02T08:28:56.052Z,45.20
2018-11-02T08:31:25.447Z,42.90
2018-11-02T08:33:55.167Z,41.30
2018-11-02T08:36:24.545Z,38.90
2018-11-02T08:38:54.160Z,39.80
2018-11-02T08:41:23.552Z,38.60
2018-11-02T08:43:52.927Z,38.80
2018-11-02T08:46:22.351Z,38.20
2018-11-02T08:48:51.898Z,36.70
2018-11-02T08:51:21.361Z,37.00
2018-11-02T08:53:50.764Z,36.50
2018-11-02T08:56:20.286Z,35.00
2018-11-02T08:58:49.960Z,33.60
2018-11-02T09:01:19.210Z,33.60
2018-11-02T09:03:48.623Z,33.50
2018-11-02T09:06:18.008Z,34.00
2018-11-02T09:08:47.797Z,33.30
2018-11-02T09:11:17.380Z,34.30
2018-11-02T09:13:47.166Z,33.40
2018-11-02T09:16:16.720Z,35.00
2018-11-02T09:18:46.676Z,36.70
2018-11-02T09:21:15.989Z,37.50
2018-11-02T09:23:45.572Z,38.70
2018-11-02T09:26:15.408Z,40.60
2018-11-02T09:28:45.193Z,39.80
2018-11-02T09:31:14.742Z,41.40
2018-11-02T09:33:44.860Z,43.40
2018-11-02T09:36:14.454Z,45.80
2018-11-02T09:38:44.300Z,47.70
2018-11-02T09:41:13.861Z,46.90
2018-11-02T09:43:43.354Z,44.40
2018-11-02T09:46:13.194Z,42.40
2018-11-02T09:48:43.101Z,41.80
2018-11-02T09:51:12.708Z,40.00
2018-11-02T09:53:42.736Z,36.20
2018-11-02T09:56:12.300Z,35.10
2018-11-02T09:58:42.013Z,35.90
2018-11-02T10:01:11.722Z,34.50
2018-11-02T10:03:41.337Z,35.60
2018-11-02T10:06:10.944Z,36.40
2018-11-02T10:08:40.617Z,38.60
2018-11-02T10:11:10.557Z,39.40
2018-11-02T10:13:40.198Z,38.50
2018-11-02T10:16:10.140Z,38.40
2018-11-02T10:18:39.895Z,41.00
2018-11-02T10:21:09.682Z,44.40
2018-11-02T10:23:39.397Z,47.30
2018-11-02T10:26:08.976Z,47.50
2018-11-02T10:28:38.660Z,45.80
2018-11-02T10:31:08.337Z,41.90
2018-11-02T10:33:37.981Z,40.80
2018-11-02T10:36:07.956Z,39.20
2018-11-02T10:38:37.675Z,39.20
2018-11-02T10:41:08.136Z,40.00
2018-11-02T10:43:38.374Z,41.00
2018-11-02T10:46:07.903Z,40.40
2018-11-02T10:48:37.831Z,40.20
2018-11-02T10:51:07.441Z,38.70
2018-11-02T10:53:36.986Z,39.20
2018-11-02T10:56:06.922Z,39.80
2018-11-02T10:58:36.678Z,41.00
2018-11-02T11:01:11.931Z,39.60
2018-11-02T11:03:41.647Z,38.60
2018-11-02T11:06:11.353Z,38.90
2018-11-02T11:08:41.068Z,39.50
2018-11-02T11:11:10.713Z,38.60
2018-11-02T11:13:40.631Z,37.40
2018-11-02T11:16:09.986Z,36.80
2018-11-02T11:18:39.723Z,36.30
2018-11-02T11:21:09.537Z,36.00
2018-11-02T11:23:39.031Z,36.40
2018-11-02T11:26:08.730Z,36.10
2018-11-02T11:28:38.573Z,37.40
2018-11-02T11:31:08.067Z,39.20
2018-11-02T11:33:37.591Z,42.10
2018-11-02T11:36:07.158Z,44.50
2018-11-02T11:38:36.860Z,46.50
2018-11-02T11:41:06.489Z,48.30
2018-11-02T11:43:36.080Z,50.20
2018-11-02T11:46:05.820Z,51.10
2018-11-02T11:48:35.518Z,52.90
2018-11-02T11:51:05.426Z,53.80
2018-11-02T11:53:35.003Z,55.00
2018-11-02T11:56:04.946Z,56.20
2018-11-02T11:58:34.994Z,56.40
2018-11-02T12:01:04.688Z,56.90
2018-11-02T12:03:34.375Z,57.50
2018-11-02T12:06:04.226Z,57.70
2018-11-02T12:08:34.023Z,58.00
2018-11-02T12:11:03.636Z,57.90
2018-11-02T12:13:33.240Z,58.40
2018-11-02T12:16:02.978Z,58.60
2018-11-02T12:18:32.808Z,59.40
2018-11-02T12:21:02.465Z,60.00
2018-11-02T12:23:32.328Z,60.60
2018-11-02T12:26:02.000Z,61.10
2018-11-02T12:28:31.746Z,62.00
2018-11-02T12:31:01.414Z,62.30
2018-11-02T12:33:31.117Z,62.00
2018-11-02T12:36:00.838Z,63.80
2018-11-02T12:38:30.308Z,63.20
2018-11-02T12:40:59.919Z,61.80
2018-11-02T12:43:29.656Z,62.70
2018-11-02T12:45:59.277Z,63.50
2018-11-02T12:48:29.024Z,63.20
2018-11-02T12:50:58.566Z,64.10
2018-11-02T12:53:28.272Z,63.20
2018-11-02T12:55:58.038Z,63.80
2018-11-02T12:58:27.771Z,62.00
2018-11-02T13:00:57.661Z,62.10
2018-11-02T13:03:27.789Z,61.80
2018-11-02T13:05:57.519Z,60.40
2018-11-02T13:08:27.393Z,59.90
2018-11-02T13:10:56.989Z,60.90
2018-11-02T13:13:26.922Z,61.30
2018-11-02T13:15:56.526Z,59.40
2018-11-02T13:18:26.563Z,58.20
2018-11-02T13:20:56.322Z,58.90
2018-11-02T13:23:26.581Z,60.30
2018-11-02T13:25:56.398Z,61.20
2018-11-02T13:28:26.026Z,61.30
2018-11-02T13:30:56.063Z,61.50
2018-11-02T13:33:26.515Z,61.20
2018-11-02T13:35:56.187Z,60.10
2018-11-02T13:38:26.147Z,60.60
2018-11-02T13:40:56.060Z,60.30
2018-11-02T13:43:25.817Z,60.60
2018-11-02T13:45:55.379Z,60.90
2018-11-02T13:48:25.981Z,60.50
2018-11-02T13:50:55.681Z,61.40
2018-11-02T13:53:25.403Z,59.90
2018-11-02T13:55:56.013Z,60.10
2018-11-02T13:58:32.174Z,61.00
2018-11-02T14:01:01.763Z,62.10
2018-11-02T14:03:31.407Z,63.00
2018-11-02T14:06:01.185Z,63.50
2018-11-02T14:08:31.121Z,64.70
2018-11-02T14:11:00.935Z,66.20
2018-11-02T14:13:30.820Z,66.10
2018-11-02T14:16:00.561Z,65.60
2018-11-02T14:18:30.269Z,66.80
2018-11-02T14:20:59.707Z,67.00
2018-11-02T14:23:29.559Z,67.20
2018-11-02T14:25:59.866Z,66.80
2018-11-02T14:28:29.454Z,67.20
2018-11-02T14:30:59.274Z,67.50
2018-11-02T14:33:28.943Z,68.00
2018-11-02T14:35:58.545Z,67.90
2018-11-02T14:38:28.193Z,68.20
2018-11-02T14:40:57.900Z,69.00
2018-11-02T14:43:27.552Z,69.60
2018-11-02T14:45:57.410Z,68.60
2018-11-02T14:48:27.118Z,69.40
2018-11-02T14:50:56.941Z,68.70
2018-11-02T14:53:27.228Z,68.70
2018-11-02T14:55:56.857Z,70.60
2018-11-02T14:58:27.017Z,71.50
2018-11-02T15:00:57.461Z,71.90
2018-11-02T15:03:27.166Z,70.30
2018-11-02T15:05:56.976Z,69.40
2018-11-02T15:08:26.756Z,70.20
2018-11-02T15:10:56.416Z,71.30
2018-11-02T15:13:26.016Z,75.00
2018-11-02T15:15:55.760Z,78.10
2018-11-02T15:18:25.769Z,79.30
2018-11-02T15:20:55.653Z,77.40
2018-11-02T15:23:25.346Z,77.40
2018-11-02T15:25:55.493Z,78.10
2018-11-02T15:28:25.197Z,76.90
2018-11-02T15:30:54.968Z,78.10
2018-11-02T15:33:25.012Z,78.40
2018-11-02T15:35:54.789Z,77.50
2018-11-02T15:38:24.244Z,78.10
2018-11-02T15:40:54.063Z,79.30
2018-11-02T15:43:24.290Z,78.80
2018-11-02T15:45:53.862Z,79.10
2018-11-02T15:48:23.585Z,79.80
2018-11-02T15:50:53.199Z,79.60
2018-11-02T15:53:22.833Z,80.80
2018-11-02T15:55:52.406Z,80.90
2018-11-02T15:58:22.136Z,81.80
2018-11-02T16:00:51.830Z,81.20
2018-11-02T16:03:21.639Z,81.20
2018-11-02T16:05:51.249Z,81.10
2018-11-02T16:08:20.949Z,80.80
2018-11-02T16:10:50.608Z,81.10
2018-11-02T16:13:20.179Z,81.40
2018-11-02T16:15:49.676Z,81.30
2018-11-02T16:18:19.498Z,81.20
2018-11-02T16:20:49.104Z,81.00
2018-11-02T16:23:19.187Z,81.20
2018-11-02T16:25:48.821Z,81.10
2018-11-02T16:28:18.413Z,81.30
2018-11-02T16:30:48.141Z,81.70
2018-11-02T16:33:17.848Z,83.70
2018-11-02T16:35:47.766Z,84.90
2018-11-02T16:38:17.520Z,86.00
2018-11-02T16:40:47.423Z,87.20
2018-11-02T16:43:17.391Z,87.00
2018-11-02T16:45:47.198Z,87.20
2018-11-02T16:48:16.922Z,86.50
2018-11-02T16:50:46.579Z,86.00
2018-11-02T16:53:16.322Z,85.40
2018-11-02T16:55:46.101Z,84.80
2018-11-02T16:58:15.775Z,84.70
2018-11-02T17:00:45.308Z,84.10
2018-11-02T17:03:15.141Z,84.40
2018-11-02T17:05:44.775Z,84.80
2018-11-02T17:08:14.425Z,85.80
2018-11-02T17:10:44.189Z,85.80
2018-11-02T17:13:13.725Z,86.30
2018-11-02T17:15:43.742Z,86.20
2018-11-02T17:18:13.388Z,86.00
2018-11-02T17:20:43.072Z,85.40
2018-11-02T17:23:12.552Z,83.80
2018-11-02T17:25:42.277Z,83.60
2018-11-02T17:28:11.980Z,82.70
2018-11-02T17:30:41.819Z,81.60
2018-11-02T17:33:11.397Z,80.90
2018-11-02T17:35:41.128Z,81.20
2018-11-02T17:38:10.637Z,80.70
2018-11-02T17:40:40.320Z,80.50
2018-11-02T17:43:10.061Z,79.40
2018-11-02T17:45:39.753Z,79.50
2018-11-02T17:48:09.223Z,78.40
2018-11-02T17:50:39.104Z,78.10
2018-11-02T17:53:08.794Z,78.20
2018-11-02T17:55:38.671Z,77.70
2018-11-02T17:58:08.448Z,78.00
2018-11-02T18:00:38.089Z,76.60
2018-11-02T18:03:07.830Z,77.00
2018-11-02T18:05:37.498Z,76.50
2018-11-02T18:08:07.243Z,76.80
2018-11-02T18:10:36.958Z,76.70
2018-11-02T18:13:07.088Z,76.70
2018-11-02T18:15:36.905Z,77.50
2018-11-02T18:18:06.661Z,77.20
2018-11-02T18:20:37.123Z,77.20
2018-11-02T18:23:06.929Z,77.80
2018-11-02T18:25:36.548Z,78.10
2018-11-02T18:28:06.563Z,77.90
2018-11-02T18:30:36.282Z,77.60
2018-11-02T18:33:06.044Z,78.00
2018-11-02T18:35:35.862Z,78.10
2018-11-02T18:38:05.441Z,78.30
2018-11-02T18:40:35.178Z,78.60
2018-11-02T18:43:04.814Z,79.80
2018-11-02T18:45:34.473Z,82.50
2018-11-02T18:48:04.219Z,83.70
2018-11-02T18:50:33.860Z,83.80
2018-11-02T18:53:03.658Z,84.40
2018-11-02T18:55:33.276Z,85.20
2018-11-02T18:58:02.866Z,85.60
2018-11-02T19:00:32.486Z,85.30
2018-11-02T19:03:02.019Z,85.70
2018-11-02T19:05:31.715Z,86.70
2018-11-02T19:08:01.733Z,86.70
2018-11-02T19:10:31.473Z,87.10
2018-11-02T19:13:01.223Z,87.90
2018-11-02T19:15:31.169Z,88.00
2018-11-02T19:18:01.067Z,88.30
2018-11-02T19:20:30.761Z,88.10
2018-11-02T19:23:01.067Z,88.60
2018-11-02T19:25:31.157Z,88.40
2018-11-02T19:28:01.007Z,88.60
2018-11-02T19:30:30.553Z,88.70
2018-11-02T19:33:00.606Z,87.80
2018-11-02T19:35:30.354Z,87.20
2018-11-02T19:38:00.103Z,88.60
2018-11-02T19:40:29.711Z,88.70
2018-11-02T19:43:05.561Z,88.80
2018-11-02T19:45:35.651Z,88.90
2018-11-02T19:48:06.013Z,89.80
2018-11-02T19:50:35.960Z,90.00
2018-11-02T19:53:06.116Z,90.40
2018-11-02T19:55:35.850Z,90.40
2018-11-02T19:58:06.671Z,90.20
2018-11-02T20:00:36.345Z,89.60
2018-11-02T20:03:06.440Z,90.00
2018-11-02T20:05:36.356Z,89.70
2018-11-02T20:08:06.574Z,89.40
2018-11-02T20:10:36.287Z,87.70
2018-11-02T20:13:06.200Z,87.20
2018-11-02T20:15:35.777Z,87.10
2018-11-02T20:18:05.696Z,86.60
2018-11-02T20:20:35.501Z,85.00
2018-11-02T20:23:05.386Z,85.10
2018-11-02T20:25:35.141Z,84.40
2018-11-02T20:28:05.163Z,82.80
2018-11-02T20:30:35.110Z,83.40
2018-11-02T20:33:04.917Z,82.30
2018-11-02T20:35:34.592Z,80.90
2018-11-02T20:38:04.278Z,80.90
2018-11-02T20:40:35.079Z,79.90
2018-11-02T20:43:04.649Z,79.30
2018-11-02T20:45:34.468Z,79.40
2018-11-02T20:48:04.166Z,79.80
2018-11-02T20:50:35.116Z,78.90
2018-11-02T20:53:05.098Z,78.20
2018-11-02T20:55:34.942Z,76.10
2018-11-02T20:58:04.929Z,76.00
2018-11-02T21:00:34.469Z,75.30
2018-11-02T21:03:04.307Z,74.50
2018-11-02T21:05:34.192Z,73.40
2018-11-02T21:08:04.012Z,73.10
2018-11-02T21:10:33.685Z,73.10
2018-11-02T21:13:03.446Z,72.10
2018-11-02T21:15:33.028Z,70.80
2018-11-02T21:18:02.891Z,71.00
2018-11-02T21:20:32.610Z,71.80
2018-11-02T21:23:02.529Z,69.20
2018-11-02T21:25:32.144Z,70.20
2018-11-02T21:28:01.697Z,69.50
2018-11-02T21:30:31.516Z,69.40
2018-11-02T21:33:01.171Z,67.90
2018-11-02T21:35:30.674Z,67.40
2018-11-02T21:38:00.438Z,67.40
2018-11-02T21:40:29.907Z,67.50
2018-11-02T21:42:59.425Z,67.50
2018-11-02T21:45:29.115Z,66.90
2018-11-02T21:47:58.865Z,66.90
2018-11-02T21:50:28.950Z,67.60
2018-11-02T21:52:58.587Z,67.70
2018-11-02T21:55:28.097Z,67.10
2018-11-02T21:57:57.730Z,66.60
2018-11-02T22:00:27.635Z,66.80
2018-11-02T22:02:57.252Z,67.50
2018-11-02T22:05:26.913Z,67.30
2018-11-02T22:07:56.519Z,66.90
2018-11-02T22:10:26.824Z,66.70
2018-11-02T22:12:56.600Z,66.40
2018-11-02T22:15:26.336Z,65.90
2018-11-02T22:17:56.073Z,66.70
2018-11-02T22:20:25.575Z,66.30
2018-11-02T22:22:55.213Z,67.00
2018-11-02T22:25:24.795Z,67.40
2018-11-02T22:27:54.611Z,68.00
2018-11-02T22:30:24.325Z,68.50
2018-11-02T22:32:54.187Z,68.30
2018-11-02T22:35:23.950Z,68.50
2018-11-02T22:37:53.595Z,69.00
2018-11-02T22:40:23.213Z,68.90
2018-11-02T22:42:52.918Z,69.80
2018-11-02T22:45:22.674Z,70.20
2018-11-02T22:47:57.515Z,70.10
2018-11-02T22:50:27.106Z,70.40
2018-11-02T22:52:56.777Z,70.80
2018-11-02T22:55:26.577Z,71.40
2018-11-02T22:57:56.290Z,71.60
2018-11-02T23:00:26.464Z,71.70
2018-11-02T23:02:56.176Z,71.60
2018-11-02T23:05:26.058Z,71.10
2018-11-02T23:07:55.706Z,71.80
2018-11-02T23:10:25.343Z,72.40
2018-11-02T23:12:55.001Z,72.90
2018-11-02T23:15:24.597Z,72.90
2018-11-02T23:17:54.751Z,72.80
2018-11-02T23:20:24.465Z,73.30
2018-11-02T23:22:54.067Z,73.10
2018-11-02T23:25:23.818Z,73.00
2018-11-02T23:27:53.379Z,73.60
2018-11-02T23:30:23.504Z,74.00
2018-11-02T23:32:53.140Z,73.70
2018-11-02T23:35:22.729Z,73.80
2018-11-02T23:37:52.301Z,74.50
2018-11-02T23:40:22.548Z,74.30
2018-11-02T23:42:52.255Z,75.10
2018-11-02T23:45:21.966Z,75.00
2018-11-02T23:47:57.634Z,74.80
2018-11-02T23:50:27.269Z,74.80
2018-11-02T23:52:56.928Z,74.90
2018-11-02T23:55:26.517Z,74.60
2018-11-02T23:57:56.227Z,74.20
